This is the latest recevied weather packets stored in our database for station/object W1ERB-13. If no packets are shown the sender has not sent any weather packets the latest 10 day(s).
| Time | Temp. | Humidity | Pressure | Rain* | Wind** | Luminosity | Snow |
|---|---|---|---|---|---|---|---|
| 1777659168 | 16.11° C | 36% | 1010.3 hPa | 0 mm | - | 241 W/m² | - |
| 1777658866 | 16.11° C | 34% | 1010.2 hPa | 0 mm | - | 752 W/m² | - |
| 1777658562 | 15.56° C | 36% | 1010.4 hPa | 0 mm | - | 745 W/m² | - |
| 1777658258 | 16.11° C | 36% | 1010.2 hPa | 0 mm | - | 147 W/m² | - |
| 1777657956 | 17.22° C | 32% | 1010.3 hPa | 0 mm | - | 379 W/m² | - |
| 1777657652 | 16.67° C | 35% | 1010.2 hPa | 0 mm | - | 722 W/m² | - |
| 1777657350 | 16.11° C | 35% | 1009.9 hPa | 0 mm | - | 711 W/m² | - |
| 1777657047 | 15.56° C | 37% | 1010.3 hPa | 0 mm | - | 746 W/m² | - |
| 1777656744 | 15.56° C | 34% | 1010.6 hPa | 0 mm | - | 749 W/m² | - |
| 1777656440 | 16.67° C | 35% | 1010.2 hPa | 0 mm | - | 782 W/m² | - |
| 1777656135 | 16.11° C | 36% | 1010.3 hPa | 0 mm | - | 788 W/m² | - |
| 1777655832 | 16.11° C | 42% | 1010.2 hPa | 0 mm | - | 784 W/m² | - |
| 1777655529 | 16.11° C | 37% | 1010.6 hPa | 0 mm | - | 825 W/m² | - |
| 1777655226 | 14.44° C | 44% | 1010.6 hPa | 0 mm | - | 838 W/m² | - |
| 1777654922 | 15.56° C | 36% | 1010.6 hPa | 0 mm | - | 444 W/m² | - |
| 1777654620 | 15.56° C | 43% | 1010.7 hPa | 0 mm | - | 783 W/m² | - |
| 1777654317 | 15° C | 41% | 1010.8 hPa | 0 mm | - | 751 W/m² | - |
| 1777654015 | 15° C | 39% | 1010.6 hPa | 0 mm | - | 764 W/m² | - |
| 1777653712 | 15° C | 38% | 1010.7 hPa | 0 mm | - | 155 W/m² | - |
| 1777653408 | 15.56° C | 38% | 1010.8 hPa | 0 mm | - | 786 W/m² | - |
| 1777653105 | 16.11° C | 38% | 1010.7 hPa | 0 mm | - | 258 W/m² | - |
| 1777652801 | 15.56° C | 39% | 1010.9 hPa | 0 mm | - | 742 W/m² | - |
| 1777652498 | 15° C | 42% | 1010.9 hPa | 0 mm | - | 781 W/m² | - |
| 1777652195 | 16.11° C | 36% | 1010.8 hPa | 0 mm | - | 319 W/m² | - |
| 1777651892 | 15.56° C | 40% | 1011 hPa | 0 mm | - | 793 W/m² | - |
* Rain latest hour (hover to see other rain measurements)
** Current wind speed in m/s (hover to see current wind gust speed)